createdAt,value
2018-07-02T00:00:56.807Z,1011.38
2018-07-02T00:01:56.828Z,1011.42
2018-07-02T00:02:56.824Z,1011.41
2018-07-02T00:03:56.823Z,1011.40
2018-07-02T00:04:56.825Z,1011.36
2018-07-02T00:05:56.522Z,1011.38
2018-07-02T00:06:56.564Z,1011.39
2018-07-02T00:07:56.849Z,1011.32
2018-07-02T00:08:56.810Z,1011.32
2018-07-02T00:09:56.573Z,1011.33
2018-07-02T00:10:58.360Z,1011.35
2018-07-02T00:11:56.544Z,1011.31
2018-07-02T00:12:56.611Z,1011.28
2018-07-02T00:13:56.845Z,1011.28
2018-07-02T00:14:56.855Z,1011.31
2018-07-02T00:15:56.847Z,1011.28
2018-07-02T00:16:56.834Z,1011.30
2018-07-02T00:17:56.356Z,1011.27
2018-07-02T00:18:56.849Z,1011.26
2018-07-02T00:19:56.602Z,1011.29
2018-07-02T00:20:56.855Z,1011.25
2018-07-02T00:21:56.856Z,1011.24
2018-07-02T00:22:56.850Z,1011.26
2018-07-02T00:23:56.838Z,1011.24
2018-07-02T00:24:56.841Z,1011.21
2018-07-02T00:25:56.609Z,1011.24
2018-07-02T00:26:58.367Z,1011.23
2018-07-02T00:27:56.829Z,1011.22
2018-07-02T00:28:56.867Z,1011.24
2018-07-02T00:29:56.812Z,1011.25
2018-07-02T00:30:56.818Z,1011.26
2018-07-02T00:31:56.833Z,1011.22
2018-07-02T00:32:56.853Z,1011.22
2018-07-02T00:33:56.813Z,1011.21
2018-07-02T00:34:56.832Z,1011.22
2018-07-02T00:35:56.832Z,1011.20
2018-07-02T00:36:56.613Z,1011.21
2018-07-02T00:37:56.849Z,1011.22
2018-07-02T00:38:56.837Z,1011.16
2018-07-02T00:39:56.857Z,1011.21
2018-07-02T00:40:56.583Z,1011.20
2018-07-02T00:41:56.590Z,1011.18
2018-07-02T00:42:56.576Z,1011.20
2018-07-02T00:43:56.547Z,1011.14
2018-07-02T00:44:56.857Z,1011.13
2018-07-02T00:45:56.828Z,1011.11
2018-07-02T00:46:56.857Z,1011.12
2018-07-02T00:47:56.857Z,1011.05
2018-07-02T00:48:56.627Z,1011.02
2018-07-02T00:49:58.356Z,1011.02
2018-07-02T00:50:56.567Z,1011.05
2018-07-02T00:51:56.861Z,1010.99
2018-07-02T00:52:56.824Z,1011.01
2018-07-02T00:53:56.627Z,1010.97
2018-07-02T00:54:56.825Z,1010.96
2018-07-02T00:55:56.627Z,1010.95
2018-07-02T00:56:56.857Z,1010.85
2018-07-02T00:57:56.863Z,1010.88
2018-07-02T00:58:56.843Z,1010.88
2018-07-02T00:59:56.850Z,1010.86
2018-07-02T01:00:56.625Z,1010.84
2018-07-02T01:01:56.141Z,1010.87
2018-07-02T01:02:56.819Z,1010.85
2018-07-02T01:03:56.847Z,1010.85
2018-07-02T01:04:56.602Z,1010.85
2018-07-02T01:05:56.927Z,1010.82
2018-07-02T01:06:56.866Z,1010.85
2018-07-02T01:07:56.869Z,1010.84
2018-07-02T01:08:56.862Z,1010.87
2018-07-02T01:09:56.349Z,1010.85
2018-07-02T01:10:56.605Z,1010.91
2018-07-02T01:11:56.863Z,1010.88
2018-07-02T01:12:56.875Z,1010.90
2018-07-02T01:13:56.863Z,1010.86
2018-07-02T01:14:56.902Z,1010.81
2018-07-02T01:15:56.835Z,1010.84
2018-07-02T01:16:56.854Z,1010.82
2018-07-02T01:17:56.861Z,1010.78
2018-07-02T01:18:56.845Z,1010.80
2018-07-02T01:19:57.184Z,1010.75
2018-07-02T01:20:58.829Z,1010.77
2018-07-02T01:21:56.870Z,1010.80
2018-07-02T01:22:58.439Z,1010.77
2018-07-02T01:23:56.873Z,1010.79
2018-07-02T01:24:56.873Z,1010.79
2018-07-02T01:25:56.885Z,1010.83
2018-07-02T01:26:56.850Z,1010.82
2018-07-02T01:27:56.888Z,1010.78
2018-07-02T01:28:56.608Z,1010.83
2018-07-02T01:29:56.878Z,1010.81
2018-07-02T01:30:56.857Z,1010.80
2018-07-02T01:31:56.874Z,1010.78
2018-07-02T01:32:56.879Z,1010.80
2018-07-02T01:33:56.871Z,1010.80
2018-07-02T01:34:56.874Z,1010.82
2018-07-02T01:35:56.369Z,1010.78
2018-07-02T01:36:56.847Z,1010.76
2018-07-02T01:37:56.602Z,1010.79
2018-07-02T01:38:56.854Z,1010.78
2018-07-02T01:39:56.608Z,1010.78
2018-07-02T01:40:56.885Z,1010.81
2018-07-02T01:41:56.879Z,1010.82
2018-07-02T01:42:56.541Z,1010.78
2018-07-02T01:43:56.595Z,1010.83
2018-07-02T01:44:56.326Z,1010.84
2018-07-02T01:45:56.883Z,1010.86
2018-07-02T01:46:56.826Z,1010.86
2018-07-02T01:47:56.871Z,1010.90
2018-07-02T01:48:56.885Z,1010.93
2018-07-02T01:49:56.880Z,1010.89
2018-07-02T01:50:56.880Z,1010.90
2018-07-02T01:51:56.892Z,1010.96
2018-07-02T01:52:56.893Z,1010.98
2018-07-02T01:53:56.840Z,1010.94
2018-07-02T01:54:56.851Z,1010.97
2018-07-02T01:55:56.684Z,1010.95
2018-07-02T01:56:56.338Z,1010.96
2018-07-02T01:57:56.847Z,1010.98
2018-07-02T01:58:56.865Z,1010.95
2018-07-02T01:59:56.867Z,1010.94
2018-07-02T02:00:56.845Z,1010.98
2018-07-02T02:01:56.861Z,1011.00
2018-07-02T02:02:56.632Z,1010.97
2018-07-02T02:03:56.603Z,1010.98
2018-07-02T02:04:56.660Z,1011.00
2018-07-02T02:05:56.575Z,1010.98
2018-07-02T02:06:56.130Z,1011.02
2018-07-02T02:07:56.600Z,1010.99
2018-07-02T02:08:56.869Z,1010.96
2018-07-02T02:09:56.862Z,1010.99
2018-07-02T02:10:58.421Z,1011.00
2018-07-02T02:11:56.868Z,1011.01
2018-07-02T02:12:56.661Z,1011.01
2018-07-02T02:13:56.834Z,1011.01
2018-07-02T02:14:56.873Z,1010.99
2018-07-02T02:15:56.851Z,1010.97
2018-07-02T02:16:56.887Z,1010.95
2018-07-02T02:17:56.852Z,1010.97
2018-07-02T02:18:56.851Z,1010.97
2018-07-02T02:19:56.846Z,1010.97
2018-07-02T02:20:56.852Z,1010.99
2018-07-02T02:21:56.666Z,1011.02
2018-07-02T02:22:56.893Z,1011.06
2018-07-02T02:23:56.867Z,1011.06
2018-07-02T02:24:56.868Z,1011.04
2018-07-02T02:25:56.855Z,1011.08
2018-07-02T02:26:56.858Z,1011.10
2018-07-02T02:27:56.875Z,1011.08
2018-07-02T02:28:56.854Z,1011.07
2018-07-02T02:29:56.877Z,1011.09
2018-07-02T02:30:56.851Z,1011.05
2018-07-02T02:31:56.870Z,1011.13
2018-07-02T02:32:56.729Z,1011.10
2018-07-02T02:33:56.850Z,1011.13
2018-07-02T02:34:56.647Z,1011.11
2018-07-02T02:35:56.857Z,1011.05
2018-07-02T02:36:56.915Z,1011.10
2018-07-02T02:37:56.875Z,1011.11
2018-07-02T02:38:56.671Z,1011.11
2018-07-02T02:39:56.627Z,1011.16
2018-07-02T02:40:56.653Z,1011.15
2018-07-02T02:41:56.833Z,1011.18
2018-07-02T02:42:56.953Z,1011.20
2018-07-02T02:43:56.855Z,1011.19
2018-07-02T02:44:56.377Z,1011.19
2018-07-02T02:45:56.571Z,1011.19
2018-07-02T02:46:56.883Z,1011.14
2018-07-02T02:47:56.888Z,1011.14
2018-07-02T02:48:56.858Z,1011.16
2018-07-02T02:49:56.882Z,1011.17
2018-07-02T02:50:56.862Z,1011.16
2018-07-02T02:51:56.698Z,1011.19
2018-07-02T02:52:56.855Z,1011.19
2018-07-02T02:53:56.886Z,1011.14
2018-07-02T02:54:56.962Z,1011.19
2018-07-02T02:55:56.895Z,1011.15
2018-07-02T02:56:56.164Z,1011.19
2018-07-02T02:57:56.703Z,1011.20
2018-07-02T02:58:56.877Z,1011.15
2018-07-02T02:59:56.880Z,1011.18
2018-07-02T03:00:57.224Z,1011.16
2018-07-02T03:01:56.191Z,1011.15
2018-07-02T03:02:56.691Z,1011.14
2018-07-02T03:03:56.924Z,1011.16
2018-07-02T03:04:56.665Z,1011.16
2018-07-02T03:05:56.907Z,1011.11
2018-07-02T03:06:56.909Z,1011.10
2018-07-02T03:07:56.402Z,1011.13
2018-07-02T03:08:56.670Z,1011.13
2018-07-02T03:09:56.695Z,1011.19
2018-07-02T03:10:56.886Z,1011.23
2018-07-02T03:11:56.867Z,1011.22
2018-07-02T03:12:56.884Z,1011.20
2018-07-02T03:13:56.890Z,1011.19
2018-07-02T03:14:56.869Z,1011.23
2018-07-02T03:15:56.676Z,1011.22
2018-07-02T03:16:56.167Z,1011.25
2018-07-02T03:17:56.707Z,1011.22
2018-07-02T03:18:56.741Z,1011.24
2018-07-02T03:19:56.665Z,1011.24
2018-07-02T03:20:56.916Z,1011.24
2018-07-02T03:21:56.910Z,1011.23
2018-07-02T03:22:56.909Z,1011.25
2018-07-02T03:23:56.866Z,1011.26
2018-07-02T03:24:56.882Z,1011.24
2018-07-02T03:25:56.919Z,1011.25
2018-07-02T03:26:56.928Z,1011.25
2018-07-02T03:27:56.869Z,1011.26
2018-07-02T03:28:56.892Z,1011.29
2018-07-02T03:29:56.390Z,1011.28
2018-07-02T03:30:56.938Z,1011.28
2018-07-02T03:31:56.919Z,1011.27
2018-07-02T03:32:56.871Z,1011.25
2018-07-02T03:33:57.396Z,1011.24
2018-07-02T03:34:56.876Z,1011.26
2018-07-02T03:35:56.900Z,1011.26
2018-07-02T03:36:56.918Z,1011.27
2018-07-02T03:37:56.143Z,1011.27
2018-07-02T03:38:57.325Z,1011.26
2018-07-02T03:39:56.450Z,1011.25
2018-07-02T03:40:58.804Z,1011.26
2018-07-02T03:41:56.693Z,1011.25
2018-07-02T03:42:56.896Z,1011.26
2018-07-02T03:43:56.946Z,1011.24
2018-07-02T03:44:56.691Z,1011.24
2018-07-02T03:45:56.682Z,1011.25
2018-07-02T03:46:56.873Z,1011.27
2018-07-02T03:47:56.948Z,1011.25
2018-07-02T03:48:56.916Z,1011.25
2018-07-02T03:49:56.924Z,1011.29
2018-07-02T03:50:56.390Z,1011.30
2018-07-02T03:51:56.945Z,1011.24
2018-07-02T03:52:56.852Z,1011.30
2018-07-02T03:53:56.875Z,1011.31
2018-07-02T03:54:57.074Z,1011.32
2018-07-02T03:55:56.918Z,1011.32
2018-07-02T03:56:56.931Z,1011.28
2018-07-02T03:57:56.379Z,1011.31
2018-07-02T03:58:56.900Z,1011.30
2018-07-02T03:59:56.897Z,1011.28
2018-07-02T04:00:56.903Z,1011.25
2018-07-02T04:01:56.902Z,1011.23
2018-07-02T04:02:56.982Z,1011.26
2018-07-02T04:03:56.882Z,1011.23
2018-07-02T04:04:56.899Z,1011.28
2018-07-02T04:05:56.886Z,1011.22
2018-07-02T04:06:56.426Z,1011.30
2018-07-02T04:07:56.926Z,1011.26
2018-07-02T04:08:56.675Z,1011.30
2018-07-02T04:09:56.680Z,1011.27
2018-07-02T04:10:56.935Z,1011.30
2018-07-02T04:11:56.616Z,1011.28
2018-07-02T04:12:56.670Z,1011.28
2018-07-02T04:13:56.927Z,1011.28
2018-07-02T04:14:56.910Z,1011.30
2018-07-02T04:15:56.926Z,1011.31
2018-07-02T04:16:56.935Z,1011.31
2018-07-02T04:17:56.899Z,1011.35
2018-07-02T04:18:56.913Z,1011.34
2018-07-02T04:19:56.932Z,1011.38
2018-07-02T04:20:56.440Z,1011.32
2018-07-02T04:21:56.938Z,1011.38
2018-07-02T04:22:56.148Z,1011.40
2018-07-02T04:23:56.910Z,1011.41
2018-07-02T04:24:56.988Z,1011.42
2018-07-02T04:25:56.980Z,1011.44
2018-07-02T04:26:56.936Z,1011.45
2018-07-02T04:27:56.746Z,1011.46
2018-07-02T04:28:56.441Z,1011.40
2018-07-02T04:29:56.937Z,1011.42
2018-07-02T04:30:56.940Z,1011.46
2018-07-02T04:31:56.942Z,1011.46
2018-07-02T04:32:56.917Z,1011.39
2018-07-02T04:33:56.779Z,1011.41
2018-07-02T04:34:56.397Z,1011.40
2018-07-02T04:35:56.932Z,1011.40
2018-07-02T04:36:56.943Z,1011.39
2018-07-02T04:37:56.930Z,1011.42
2018-07-02T04:38:56.124Z,1011.42
2018-07-02T04:39:56.929Z,1011.42
2018-07-02T04:40:56.967Z,1011.45
2018-07-02T04:41:56.941Z,1011.45
2018-07-02T04:42:56.940Z,1011.48
2018-07-02T04:43:57.096Z,1011.46
2018-07-02T04:44:56.447Z,1011.47
2018-07-02T04:45:56.625Z,1011.49
2018-07-02T04:46:56.933Z,1011.49
2018-07-02T04:47:56.942Z,1011.49
2018-07-02T04:48:56.898Z,1011.49
2018-07-02T04:49:56.444Z,1011.51
2018-07-02T04:50:56.905Z,1011.55
2018-07-02T04:51:56.891Z,1011.57
2018-07-02T04:52:56.893Z,1011.55
2018-07-02T04:53:56.899Z,1011.58
2018-07-02T04:54:59.010Z,1011.58
2018-07-02T04:55:56.472Z,1011.57
2018-07-02T04:56:56.447Z,1011.54
2018-07-02T04:57:56.902Z,1011.57
2018-07-02T04:58:56.995Z,1011.61
2018-07-02T04:59:56.446Z,1011.61
2018-07-02T05:00:56.951Z,1011.56
2018-07-02T05:01:56.440Z,1011.62
2018-07-02T05:02:56.446Z,1011.56
2018-07-02T05:03:56.590Z,1011.57
2018-07-02T05:04:56.940Z,1011.57
2018-07-02T05:05:56.455Z,1011.57
2018-07-02T05:06:56.410Z,1011.54
2018-07-02T05:07:56.909Z,1011.57
2018-07-02T05:08:56.929Z,1011.59
2018-07-02T05:09:56.925Z,1011.58
2018-07-02T05:10:56.685Z,1011.56
2018-07-02T05:11:56.946Z,1011.62
2018-07-02T05:12:57.257Z,1011.60
2018-07-02T05:13:57.340Z,1011.63
2018-07-02T05:14:56.900Z,1011.60
2018-07-02T05:15:56.948Z,1011.58
2018-07-02T05:16:58.554Z,1011.65
2018-07-02T05:17:56.966Z,1011.63
2018-07-02T05:18:56.446Z,1011.59
2018-07-02T05:19:58.969Z,1011.62
2018-07-02T05:20:56.990Z,1011.60
2018-07-02T05:21:57.121Z,1011.64
2018-07-02T05:22:56.786Z,1011.59
2018-07-02T05:23:56.991Z,1011.61
2018-07-02T05:24:56.455Z,1011.60
2018-07-02T05:25:56.414Z,1011.57
2018-07-02T05:26:56.980Z,1011.58
2018-07-02T05:27:56.677Z,1011.55
2018-07-02T05:28:58.795Z,1011.52
2018-07-02T05:29:56.470Z,1011.55
2018-07-02T05:30:57.053Z,1011.57
2018-07-02T05:31:58.508Z,1011.56
2018-07-02T05:32:56.936Z,1011.53
2018-07-02T05:33:56.415Z,1011.49
2018-07-02T05:34:57.229Z,1011.53
2018-07-02T05:35:56.454Z,1011.52
2018-07-02T05:36:56.961Z,1011.51
2018-07-02T05:37:56.956Z,1011.56
2018-07-02T05:38:56.458Z,1011.50
2018-07-02T05:39:56.969Z,1011.54
2018-07-02T05:40:56.057Z,1011.51
2018-07-02T05:41:56.962Z,1011.56
2018-07-02T05:42:56.457Z,1011.53
2018-07-02T05:43:56.935Z,1011.52
2018-07-02T05:44:58.963Z,1011.57
2018-07-02T05:45:57.895Z,1011.59
2018-07-02T05:46:56.914Z,1011.58
2018-07-02T05:47:57.119Z,1011.58
2018-07-02T05:48:57.005Z,1011.62
2018-07-02T05:49:56.339Z,1011.58
2018-07-02T05:50:56.984Z,1011.60
2018-07-02T05:51:56.912Z,1011.65
2018-07-02T05:52:57.014Z,1011.62
2018-07-02T05:53:56.470Z,1011.64
2018-07-02T05:54:57.017Z,1011.62
2018-07-02T05:55:57.380Z,1011.60
2018-07-02T05:56:57.023Z,1011.58
2018-07-02T05:57:56.468Z,1011.56
2018-07-02T05:58:56.997Z,1011.53
2018-07-02T05:59:57.015Z,1011.49
2018-07-02T06:00:56.979Z,1011.44
2018-07-02T06:01:56.918Z,1011.41
2018-07-02T06:02:56.970Z,1011.45
2018-07-02T06:03:56.925Z,1011.42
2018-07-02T06:04:56.966Z,1011.43
2018-07-02T06:05:56.993Z,1011.48
2018-07-02T06:06:56.425Z,1011.45
2018-07-02T06:07:56.768Z,1011.46
2018-07-02T06:08:57.341Z,1011.47
2018-07-02T06:09:56.993Z,1011.45
2018-07-02T06:11:03.467Z,1011.41
2018-07-02T06:11:56.752Z,1011.45
2018-07-02T06:12:56.423Z,1011.46
2018-07-02T06:13:56.285Z,1011.46
2018-07-02T06:14:56.429Z,1011.47
2018-07-02T06:15:55.726Z,1011.46
2018-07-02T06:16:56.473Z,1011.40
2018-07-02T06:17:56.152Z,1011.41
2018-07-02T06:18:56.349Z,1011.41
2018-07-02T06:19:56.288Z,1011.51
2018-07-02T06:20:57.978Z,1011.46
2018-07-02T06:21:56.032Z,1011.42
2018-07-02T06:22:56.936Z,1011.50
2018-07-02T06:23:56.275Z,1011.48
2018-07-02T06:24:59.030Z,1011.51
2018-07-02T06:25:57.060Z,1011.47
2018-07-02T06:26:56.968Z,1011.57
2018-07-02T06:27:57.587Z,1011.53
2018-07-02T06:28:56.949Z,1011.51
2018-07-02T06:29:56.932Z,1011.48
2018-07-02T06:30:57.296Z,1011.50
2018-07-02T06:31:58.481Z,1011.47
2018-07-02T06:32:56.964Z,1011.46
2018-07-02T06:33:56.935Z,1011.44
2018-07-02T06:34:56.936Z,1011.48
2018-07-02T06:35:56.985Z,1011.47
2018-07-02T06:36:56.988Z,1011.51
2018-07-02T06:37:56.473Z,1011.56
2018-07-02T06:38:56.735Z,1011.54
2018-07-02T06:39:56.982Z,1011.52
2018-07-02T06:40:57.033Z,1011.52
2018-07-02T06:41:56.989Z,1011.56
2018-07-02T06:42:56.488Z,1011.51
2018-07-02T06:43:57.017Z,1011.51
2018-07-02T06:44:56.982Z,1011.48
2018-07-02T06:45:56.734Z,1011.47
2018-07-02T06:46:56.746Z,1011.48
2018-07-02T06:47:57.262Z,1011.49
2018-07-02T06:48:57.022Z,1011.52
2018-07-02T06:49:57.035Z,1011.51
2018-07-02T06:50:56.936Z,1011.51
2018-07-02T06:51:56.983Z,1011.47
2018-07-02T06:52:57.997Z,1011.47
2018-07-02T06:53:57.043Z,1011.50
2018-07-02T06:55:17.006Z,1011.51
2018-07-02T06:55:56.805Z,1011.52
2018-07-02T06:56:56.989Z,1011.47
2018-07-02T06:57:56.030Z,1011.48
2018-07-02T06:58:56.505Z,1011.51
2018-07-02T06:59:57.440Z,1011.44
2018-07-02T07:00:56.482Z,1011.52
2018-07-02T07:01:57.037Z,1011.50
2018-07-02T07:02:58.705Z,1011.46
2018-07-02T07:03:57.020Z,1011.49
2018-07-02T07:04:57.428Z,1011.50
2018-07-02T07:05:56.992Z,1011.49
2018-07-02T07:06:57.040Z,1011.52
2018-07-02T07:07:57.058Z,1011.52
2018-07-02T07:08:56.990Z,1011.55
2018-07-02T07:09:59.925Z,1011.56
2018-07-02T07:10:57.026Z,1011.59
2018-07-02T07:11:56.962Z,1011.61
2018-07-02T07:12:56.787Z,1011.62
2018-07-02T07:13:56.446Z,1011.63
2018-07-02T07:14:56.951Z,1011.62
2018-07-02T07:15:56.954Z,1011.60
2018-07-02T07:16:56.950Z,1011.59
2018-07-02T07:17:59.034Z,1011.61
2018-07-02T07:18:56.948Z,1011.56
2018-07-02T07:19:57.048Z,1011.53
2018-07-02T07:20:56.773Z,1011.47
2018-07-02T07:21:57.504Z,1011.45
2018-07-02T07:22:57.024Z,1011.48
2018-07-02T07:23:56.455Z,1011.46
2018-07-02T07:24:56.790Z,1011.48
2018-07-02T07:25:56.956Z,1011.42
2018-07-02T07:26:57.035Z,1011.45
2018-07-02T07:27:56.761Z,1011.48
2018-07-02T07:28:59.100Z,1011.48
2018-07-02T07:29:56.540Z,1011.49
2018-07-02T07:30:57.455Z,1011.45
2018-07-02T07:31:56.997Z,1011.53
2018-07-02T07:32:56.932Z,1011.51
2018-07-02T07:33:59.798Z,1011.53
2018-07-02T07:34:56.958Z,1011.51
2018-07-02T07:35:56.956Z,1011.49
2018-07-02T07:36:56.958Z,1011.47
2018-07-02T07:37:57.054Z,1011.50
2018-07-02T07:39:19.534Z,1011.47
2018-07-02T07:39:58.972Z,1011.49
2018-07-02T07:40:57.084Z,1011.47
2018-07-02T07:42:04.829Z,1011.48
2018-07-02T07:42:56.510Z,1011.51
2018-07-02T07:43:57.315Z,1011.54
2018-07-02T07:44:56.894Z,1011.54
2018-07-02T07:45:57.547Z,1011.53
2018-07-02T07:46:57.063Z,1011.52
2018-07-02T07:47:56.977Z,1011.59
2018-07-02T07:48:56.538Z,1011.57
2018-07-02T07:49:57.043Z,1011.56
2018-07-02T07:50:59.215Z,1011.59
2018-07-02T07:51:56.417Z,1011.59
2018-07-02T07:52:57.088Z,1011.60
2018-07-02T07:53:57.025Z,1011.59
2018-07-02T07:54:56.316Z,1011.56
2018-07-02T07:55:57.070Z,1011.58
2018-07-02T07:56:57.100Z,1011.59
2018-07-02T07:57:57.514Z,1011.58
2018-07-02T07:58:58.035Z,1011.60
2018-07-02T07:59:57.050Z,1011.61
2018-07-02T08:00:56.476Z,1011.56
2018-07-02T08:01:55.125Z,1011.55
2018-07-02T08:02:58.531Z,1011.56
2018-07-02T08:03:56.507Z,1011.54
2018-07-02T08:04:56.967Z,1011.51
2018-07-02T08:05:56.338Z,1011.53
2018-07-02T08:06:56.534Z,1011.56
2018-07-02T08:07:56.543Z,1011.59
2018-07-02T08:08:57.013Z,1011.63
2018-07-02T08:09:56.520Z,1011.65
2018-07-02T08:10:57.058Z,1011.67
2018-07-02T08:11:56.378Z,1011.65
2018-07-02T08:12:56.479Z,1011.68
2018-07-02T08:13:56.862Z,1011.72
2018-07-02T08:14:56.543Z,1011.71
2018-07-02T08:15:56.322Z,1011.72
2018-07-02T08:16:56.153Z,1011.69
2018-07-02T08:17:56.377Z,1011.73
2018-07-02T08:18:56.557Z,1011.66
2018-07-02T08:19:56.984Z,1011.69
2018-07-02T08:20:56.468Z,1011.64
2018-07-02T08:21:57.757Z,1011.68
2018-07-02T08:22:57.311Z,1011.68
2018-07-02T08:23:59.047Z,1011.67
2018-07-02T08:24:56.974Z,1011.68
2018-07-02T08:25:56.835Z,1011.65
2018-07-02T08:26:56.545Z,1011.68
2018-07-02T08:27:56.581Z,1011.63
2018-07-02T08:28:56.978Z,1011.70
2018-07-02T08:29:56.247Z,1011.61
2018-07-02T08:30:55.154Z,1011.59
2018-07-02T08:31:56.989Z,1011.58
2018-07-02T08:32:57.088Z,1011.58
2018-07-02T08:33:57.017Z,1011.59
2018-07-02T08:34:56.975Z,1011.61
2018-07-02T08:35:57.007Z,1011.67
2018-07-02T08:36:56.529Z,1011.60
2018-07-02T08:37:57.028Z,1011.62
2018-07-02T08:38:57.042Z,1011.60
2018-07-02T08:39:56.731Z,1011.61
2018-07-02T08:40:58.074Z,1011.62
2018-07-02T08:41:57.600Z,1011.63
2018-07-02T08:42:56.557Z,1011.60
2018-07-02T08:43:57.439Z,1011.59
2018-07-02T08:44:57.026Z,1011.59
2018-07-02T08:45:56.728Z,1011.60
2018-07-02T08:46:57.191Z,1011.61
2018-07-02T08:47:57.013Z,1011.58
2018-07-02T08:48:56.272Z,1011.64
2018-07-02T08:49:57.035Z,1011.65
2018-07-02T08:50:57.062Z,1011.61
2018-07-02T08:51:56.551Z,1011.59
2018-07-02T08:52:57.057Z,1011.53
2018-07-02T08:53:56.957Z,1011.58
2018-07-02T08:54:56.969Z,1011.61
2018-07-02T08:55:59.028Z,1011.62
2018-07-02T08:56:58.555Z,1011.57
2018-07-02T08:57:56.521Z,1011.59
2018-07-02T08:58:57.371Z,1011.56
2018-07-02T08:59:56.780Z,1011.59
2018-07-02T09:00:56.481Z,1011.61
2018-07-02T09:01:56.525Z,1011.63
2018-07-02T09:02:59.026Z,1011.63
2018-07-02T09:03:56.828Z,1011.59
2018-07-02T09:04:57.069Z,1011.57
2018-07-02T09:05:56.531Z,1011.54
2018-07-02T09:06:55.659Z,1011.48
2018-07-02T09:07:59.359Z,1011.60
2018-07-02T09:08:57.586Z,1011.55
2018-07-02T09:09:56.497Z,1011.50
2018-07-02T09:10:56.568Z,1011.42
2018-07-02T09:11:59.037Z,1011.45
2018-07-02T09:12:56.489Z,1011.46
2018-07-02T09:13:57.537Z,1011.43
2018-07-02T09:14:57.224Z,1011.44
2018-07-02T09:15:59.073Z,1011.40
2018-07-02T09:16:57.026Z,1011.37
2018-07-02T09:17:57.451Z,1011.37
2018-07-02T09:18:56.956Z,1011.36
2018-07-02T09:19:57.440Z,1011.30
2018-07-02T09:20:57.367Z,1011.33
2018-07-02T09:21:57.052Z,1011.36
2018-07-02T09:22:56.996Z,1011.35
2018-07-02T09:23:57.047Z,1011.32
2018-07-02T09:24:56.489Z,1011.31
2018-07-02T09:25:57.009Z,1011.35
2018-07-02T09:26:57.054Z,1011.27
2018-07-02T09:27:55.302Z,1011.32
2018-07-02T09:28:57.037Z,1011.32
2018-07-02T09:29:57.059Z,1011.34
2018-07-02T09:30:56.830Z,1011.36
2018-07-02T09:31:56.998Z,1011.36
2018-07-02T09:32:57.511Z,1011.35
2018-07-02T09:33:56.504Z,1011.34
2018-07-02T09:34:57.090Z,1011.38
2018-07-02T09:35:58.588Z,1011.36
2018-07-02T09:36:56.596Z,1011.38
2018-07-02T09:37:57.060Z,1011.39
2018-07-02T09:38:57.000Z,1011.41
2018-07-02T09:39:56.865Z,1011.35
2018-07-02T09:40:59.445Z,1011.39
2018-07-02T09:41:57.042Z,1011.40
2018-07-02T09:42:56.875Z,1011.35
2018-07-02T09:43:56.684Z,1011.37
2018-07-02T09:44:56.808Z,1011.36
2018-07-02T09:45:58.461Z,1011.40
2018-07-02T09:46:57.517Z,1011.34
2018-07-02T09:47:57.372Z,1011.39
2018-07-02T09:48:56.852Z,1011.36
2018-07-02T09:49:57.367Z,1011.36
2018-07-02T09:50:57.074Z,1011.35
2018-07-02T09:51:56.649Z,1011.36
2018-07-02T09:52:57.002Z,1011.38
2018-07-02T09:53:56.602Z,1011.38
2018-07-02T09:54:56.861Z,1011.43
2018-07-02T09:55:57.090Z,1011.44
2018-07-02T09:56:57.520Z,1011.43
2018-07-02T09:57:56.590Z,1011.39
2018-07-02T09:58:58.395Z,1011.37
2018-07-02T09:59:57.091Z,1011.37
2018-07-02T10:00:56.894Z,1011.35
2018-07-02T10:02:01.103Z,1011.35
2018-07-02T10:02:57.120Z,1011.39
2018-07-02T10:03:56.509Z,1011.37
2018-07-02T10:04:59.105Z,1011.36
2018-07-02T10:05:57.548Z,1011.38
2018-07-02T10:06:56.552Z,1011.37
2018-07-02T10:07:57.616Z,1011.35
2018-07-02T10:08:57.049Z,1011.30
2018-07-02T10:09:58.183Z,1011.32
2018-07-02T10:10:55.833Z,1011.32
2018-07-02T10:11:57.069Z,1011.32
2018-07-02T10:12:56.766Z,1011.29
2018-07-02T10:13:56.830Z,1011.31
2018-07-02T10:14:59.016Z,1011.29
2018-07-02T10:15:59.525Z,1011.26
2018-07-02T10:17:03.629Z,1011.32
2018-07-02T10:17:56.929Z,1011.30
2018-07-02T10:18:57.144Z,1011.29
2018-07-02T10:20:11.592Z,1011.33
2018-07-02T10:20:57.016Z,1011.22
2018-07-02T10:22:11.635Z,1011.23
2018-07-02T10:22:57.210Z,1011.30
2018-07-02T10:23:57.302Z,1011.30
2018-07-02T10:24:56.816Z,1011.30
2018-07-02T10:25:58.043Z,1011.24
2018-07-02T10:26:57.025Z,1011.27
2018-07-02T10:27:59.568Z,1011.24
2018-07-02T10:28:57.256Z,1011.29
2018-07-02T10:30:00.605Z,1011.22
2018-07-02T10:30:57.152Z,1011.19
2018-07-02T10:31:57.087Z,1011.22
2018-07-02T10:32:59.106Z,1011.25
2018-07-02T10:33:55.622Z,1011.27
2018-07-02T10:34:57.024Z,1011.31
2018-07-02T10:35:56.500Z,1011.28
2018-07-02T10:36:56.867Z,1011.28
2018-07-02T10:37:56.522Z,1011.23
2018-07-02T10:38:57.123Z,1011.22
2018-07-02T10:39:57.115Z,1011.20
2018-07-02T10:41:00.360Z,1011.22
2018-07-02T10:41:59.229Z,1011.11
2018-07-02T10:42:57.580Z,1011.24
2018-07-02T10:43:59.629Z,1011.27
2018-07-02T10:44:57.082Z,1011.22
2018-07-02T10:45:56.875Z,1011.25
2018-07-02T10:46:55.504Z,1011.24
2018-07-02T10:47:57.025Z,1011.34
2018-07-02T10:48:57.409Z,1011.32
2018-07-02T10:49:57.799Z,1011.29
2018-07-02T10:50:59.270Z,1011.30
2018-07-02T10:51:58.038Z,1011.23
2018-07-02T10:52:57.372Z,1011.21
2018-07-02T10:53:57.128Z,1011.18
2018-07-02T10:54:57.174Z,1011.18
2018-07-02T10:56:18.918Z,1011.19
2018-07-02T10:56:57.114Z,1011.20
2018-07-02T10:57:59.087Z,1011.09
2018-07-02T10:59:00.309Z,1011.09
2018-07-02T10:59:57.028Z,1011.08
2018-07-02T11:00:59.145Z,1011.19
2018-07-02T11:01:57.085Z,1011.16
2018-07-02T11:03:06.716Z,1011.10
2018-07-02T11:03:57.116Z,1011.10
2018-07-02T11:04:57.116Z,1011.12
2018-07-02T11:05:56.695Z,1011.15
2018-07-02T11:06:57.071Z,1011.14
2018-07-02T11:08:01.305Z,1011.17
2018-07-02T11:08:56.944Z,1011.12
2018-07-02T11:09:58.051Z,1011.12
2018-07-02T11:10:56.926Z,1011.04
2018-07-02T11:11:57.171Z,1011.05
2018-07-02T11:12:57.364Z,1011.08
2018-07-02T11:13:59.117Z,1011.10
2018-07-02T11:14:57.096Z,1011.05
2018-07-02T11:15:56.919Z,1011.04
2018-07-02T11:16:56.666Z,1011.08
2018-07-02T11:17:56.600Z,1011.08
2018-07-02T11:18:57.046Z,1011.07
2018-07-02T11:19:57.132Z,1011.04
2018-07-02T11:20:57.579Z,1011.05
2018-07-02T11:21:59.159Z,1011.05
2018-07-02T11:22:59.143Z,1011.09
2018-07-02T11:23:57.091Z,1011.09
2018-07-02T11:24:57.450Z,1011.10
2018-07-02T11:25:58.882Z,1011.13
2018-07-02T11:26:56.563Z,1011.12
2018-07-02T11:27:58.699Z,1011.12
2018-07-02T11:28:59.293Z,1011.06
2018-07-02T11:29:56.528Z,1011.03
2018-07-02T11:30:57.552Z,1011.01
2018-07-02T11:31:57.050Z,1011.00
2018-07-02T11:32:57.108Z,1011.00
2018-07-02T11:33:58.051Z,1011.10
2018-07-02T11:35:00.253Z,1011.04
2018-07-02T11:35:57.112Z,1011.03
2018-07-02T11:36:57.087Z,1011.03
2018-07-02T11:37:57.456Z,1010.99
2018-07-02T11:38:55.616Z,1010.95
2018-07-02T11:39:57.146Z,1010.93
2018-07-02T11:40:59.131Z,1010.94
2018-07-02T11:41:57.773Z,1011.00
2018-07-02T11:42:57.026Z,1011.05
2018-07-02T11:43:59.549Z,1011.02
2018-07-02T11:44:58.024Z,1011.01
2018-07-02T11:45:57.057Z,1011.05
2018-07-02T11:46:56.912Z,1011.07
2018-07-02T11:47:56.768Z,1011.05
2018-07-02T11:48:57.060Z,1011.00
2018-07-02T11:49:57.717Z,1010.95
2018-07-02T11:50:57.055Z,1010.86
2018-07-02T11:51:57.486Z,1010.88
2018-07-02T11:52:57.059Z,1010.95
2018-07-02T11:53:57.560Z,1010.90
2018-07-02T11:54:58.325Z,1010.93
2018-07-02T11:55:57.093Z,1010.92
2018-07-02T11:57:03.622Z,1010.93
2018-07-02T11:58:03.636Z,1010.91
2018-07-02T11:59:03.613Z,1010.96
2018-07-02T11:59:59.435Z,1010.92
2018-07-02T12:01:05.247Z,1010.94
2018-07-02T12:01:57.059Z,1010.94
2018-07-02T12:02:57.802Z,1010.92
2018-07-02T12:03:57.180Z,1010.93
2018-07-02T12:04:57.622Z,1010.94
2018-07-02T12:05:57.082Z,1010.92